sensor_id;sensor_type;location;lat;lon;timestamp;pressure;altitude;pressure_sealevel;temperature;humidity
42169;BME280;27838;43.858;25.974;2024-03-08T00:00:55;101518.50;;;9.07;60.11
42169;BME280;27838;43.858;25.974;2024-03-08T00:03:22;101521.88;;;9.03;60.43
42169;BME280;27838;43.858;25.974;2024-03-08T00:05:49;101513.22;;;9.02;60.26
42169;BME280;27838;43.858;25.974;2024-03-08T00:08:16;101515.72;;;8.98;60.32
42169;BME280;27838;43.858;25.974;2024-03-08T00:10:42;101512.38;;;9.03;59.91
42169;BME280;27838;43.858;25.974;2024-03-08T00:13:09;101493.16;;;8.97;60.85
42169;BME280;27838;43.858;25.974;2024-03-08T00:15:35;101499.28;;;8.99;60.75
42169;BME280;27838;43.858;25.974;2024-03-08T00:18:02;101500.91;;;8.94;60.23
42169;BME280;27838;43.858;25.974;2024-03-08T00:20:29;101490.56;;;8.97;60.17
42169;BME280;27838;43.858;25.974;2024-03-08T00:22:55;101491.34;;;8.93;59.86
42169;BME280;27838;43.858;25.974;2024-03-08T00:25:23;101485.16;;;8.87;59.99
42169;BME280;27838;43.858;25.974;2024-03-08T00:27:49;101486.06;;;8.88;60.33
42169;BME280;27838;43.858;25.974;2024-03-08T00:30:16;101478.19;;;8.85;59.97
42169;BME280;27838;43.858;25.974;2024-03-08T00:32:43;101477.31;;;8.83;59.66
42169;BME280;27838;43.858;25.974;2024-03-08T00:35:09;101479.09;;;8.87;60.10
42169;BME280;27838;43.858;25.974;2024-03-08T00:37:37;101478.34;;;8.93;60.27
42169;BME280;27838;43.858;25.974;2024-03-08T00:40:04;101473.97;;;8.90;59.81
42169;BME280;27838;43.858;25.974;2024-03-08T00:42:32;101477.50;;;8.94;59.77
42169;BME280;27838;43.858;25.974;2024-03-08T00:44:59;101477.59;;;8.98;59.27
42169;BME280;27838;43.858;25.974;2024-03-08T00:47:26;101488.00;;;8.98;59.37
42169;BME280;27838;43.858;25.974;2024-03-08T00:49:53;101481.88;;;8.95;58.69
42169;BME280;27838;43.858;25.974;2024-03-08T00:52:21;101489.69;;;8.98;59.31
42169;BME280;27838;43.858;25.974;2024-03-08T00:54:49;101486.34;;;9.02;58.69
42169;BME280;27838;43.858;25.974;2024-03-08T00:57:16;101493.25;;;9.03;59.10
42169;BME280;27838;43.858;25.974;2024-03-08T00:59:42;101489.69;;;8.98;58.96
42169;BME280;27838;43.858;25.974;2024-03-08T01:02:09;101490.53;;;8.95;58.77
42169;BME280;27838;43.858;25.974;2024-03-08T01:04:36;101492.31;;;8.98;58.69
42169;BME280;27838;43.858;25.974;2024-03-08T01:07:03;101493.19;;;9.00;58.71
42169;BME280;27838;43.858;25.974;2024-03-08T01:09:29;101494.91;;;8.98;58.65
42169;BME280;27838;43.858;25.974;2024-03-08T01:11:56;101487.06;;;8.95;58.05
42169;BME280;27838;43.858;25.974;2024-03-08T01:14:23;101498.19;;;8.89;58.82
42169;BME280;27838;43.858;25.974;2024-03-08T01:16:51;101502.47;;;8.85;58.75
42169;BME280;27838;43.858;25.974;2024-03-08T01:19:18;101498.97;;;8.83;58.47
42169;BME280;27838;43.858;25.974;2024-03-08T01:21:44;101500.63;;;8.80;57.92
42169;BME280;27838;43.858;25.974;2024-03-08T01:24:11;101491.06;;;8.77;58.06
42169;BME280;27838;43.858;25.974;2024-03-08T01:26:38;101487.53;;;8.74;57.96
42169;BME280;27838;43.858;25.974;2024-03-08T01:29:04;101493.53;;;8.71;57.78
42169;BME280;27838;43.858;25.974;2024-03-08T01:31:32;101492.41;;;8.58;57.83
42169;BME280;27838;43.858;25.974;2024-03-08T01:33:59;101490.69;;;8.59;58.86
42169;BME280;27838;43.858;25.974;2024-03-08T01:36:26;101486.22;;;8.52;59.12
42169;BME280;27838;43.858;25.974;2024-03-08T01:38:52;101499.31;;;8.56;59.05
42169;BME280;27838;43.858;25.974;2024-03-08T01:41:19;101500.31;;;8.64;59.02
42169;BME280;27838;43.858;25.974;2024-03-08T01:43:46;101491.66;;;8.64;58.97
42169;BME280;27838;43.858;25.974;2024-03-08T01:46:18;101503.81;;;8.66;58.21
42169;BME280;27838;43.858;25.974;2024-03-08T01:48:47;101507.34;;;8.68;58.74
42169;BME280;27838;43.858;25.974;2024-03-08T01:51:14;101493.53;;;8.71;58.87
42169;BME280;27838;43.858;25.974;2024-03-08T01:53:42;101501.34;;;8.73;58.19
42169;BME280;27838;43.858;25.974;2024-03-08T01:56:11;101504.75;;;8.68;58.65
42169;BME280;27838;43.858;25.974;2024-03-08T01:58:41;101493.63;;;8.76;59.06
42169;BME280;27838;43.858;25.974;2024-03-08T02:01:08;101496.28;;;8.79;58.76
42169;BME280;27838;43.858;25.974;2024-03-08T02:03:36;101500.69;;;8.83;58.24
42169;BME280;27838;43.858;25.974;2024-03-08T02:06:04;101496.28;;;8.79;58.20
42169;BME280;27838;43.858;25.974;2024-03-08T02:08:33;101503.31;;;8.83;57.70
42169;BME280;27838;43.858;25.974;2024-03-08T02:11:00;101499.72;;;8.78;57.40
42169;BME280;27838;43.858;25.974;2024-03-08T02:13:27;101504.00;;;8.74;57.65
42169;BME280;27838;43.858;25.974;2024-03-08T02:15:58;101506.53;;;8.71;57.44
42169;BME280;27838;43.858;25.974;2024-03-08T02:18:26;101504.66;;;8.64;57.51
42169;BME280;27838;43.858;25.974;2024-03-08T02:20:58;101514.28;;;8.69;57.09
42169;BME280;27838;43.858;25.974;2024-03-08T02:23:25;101514.31;;;8.71;57.88
42169;BME280;27838;43.858;25.974;2024-03-08T02:25:53;101507.31;;;8.67;57.83
42169;BME280;27838;43.858;25.974;2024-03-08T02:28:20;101516.81;;;8.65;57.30
42169;BME280;27838;43.858;25.974;2024-03-08T02:30:47;101505.38;;;8.57;57.56
42169;BME280;27838;43.858;25.974;2024-03-08T02:33:15;101510.66;;;8.61;57.08
42169;BME280;27838;43.858;25.974;2024-03-08T02:35:47;101522.84;;;8.64;57.91
42169;BME280;27838;43.858;25.974;2024-03-08T02:38:20;101529.00;;;8.69;57.51
42169;BME280;27838;43.858;25.974;2024-03-08T02:40:49;101521.31;;;8.74;57.59
42169;BME280;27838;43.858;25.974;2024-03-08T02:43:17;101523.88;;;8.72;57.44
42169;BME280;27838;43.858;25.974;2024-03-08T02:45:44;101518.63;;;8.69;57.55
42169;BME280;27838;43.858;25.974;2024-03-08T02:48:12;101524.78;;;8.74;57.43
42169;BME280;27838;43.858;25.974;2024-03-08T02:50:39;101520.38;;;8.72;57.59
42169;BME280;27838;43.858;25.974;2024-03-08T02:53:08;101511.47;;;8.59;56.92
42169;BME280;27838;43.858;25.974;2024-03-08T02:55:35;101519.13;;;8.51;56.55
42169;BME280;27838;43.858;25.974;2024-03-08T02:58:03;101510.44;;;8.50;56.47
42169;BME280;27838;43.858;25.974;2024-03-08T03:00:29;101507.75;;;8.46;56.68
42169;BME280;27838;43.858;25.974;2024-03-08T03:02:57;101512.88;;;8.43;56.95
42169;BME280;27838;43.858;25.974;2024-03-08T03:05:24;101524.22;;;8.46;56.60
42169;BME280;27838;43.858;25.974;2024-03-08T03:07:51;101517.31;;;8.48;56.86
42169;BME280;27838;43.858;25.974;2024-03-08T03:10:18;101514.66;;;8.45;56.70
42169;BME280;27838;43.858;25.974;2024-03-08T03:12:47;101511.34;;;8.53;57.00
42169;BME280;27838;43.858;25.974;2024-03-08T03:15:14;101510.56;;;8.57;57.13
42169;BME280;27838;43.858;25.974;2024-03-08T03:17:48;101505.44;;;8.60;57.01
42169;BME280;27838;43.858;25.974;2024-03-08T03:20:17;101516.81;;;8.66;57.53
42169;BME280;27838;43.858;25.974;2024-03-08T03:22:49;101508.13;;;8.64;57.33
42169;BME280;27838;43.858;25.974;2024-03-08T03:25:19;101522.94;;;8.70;57.54
42169;BME280;27838;43.858;25.974;2024-03-08T03:27:51;101522.91;;;8.67;57.44
42169;BME280;27838;43.858;25.974;2024-03-08T03:30:17;101528.16;;;8.70;57.00
42169;BME280;27838;43.858;25.974;2024-03-08T03:32:52;101522.09;;;8.69;56.67
42169;BME280;27838;43.858;25.974;2024-03-08T03:35:20;101522.22;;;8.76;56.19
42169;BME280;27838;43.858;25.974;2024-03-08T03:37:48;101515.38;;;8.79;55.77
42169;BME280;27838;43.858;25.974;2024-03-08T03:40:29;101525.81;;;8.82;55.89
42169;BME280;27838;43.858;25.974;2024-03-08T03:42:56;101521.41;;;8.78;55.61
42169;BME280;27838;43.858;25.974;2024-03-08T03:45:24;101521.31;;;8.74;55.47
42169;BME280;27838;43.858;25.974;2024-03-08T03:47:50;101524.69;;;8.69;55.66
42169;BME280;27838;43.858;25.974;2024-03-08T03:50:21;101523.72;;;8.64;55.62
42169;BME280;27838;43.858;25.974;2024-03-08T03:52:49;101529.59;;;8.56;56.23
42169;BME280;27838;43.858;25.974;2024-03-08T03:55:15;101527.69;;;8.47;55.95
42169;BME280;27838;43.858;25.974;2024-03-08T03:57:42;101526.63;;;8.39;56.50
42169;BME280;27838;43.858;25.974;2024-03-08T04:00:11;101533.69;;;8.44;55.59
42169;BME280;27838;43.858;25.974;2024-03-08T04:02:38;101544.16;;;8.47;56.03
42169;BME280;27838;43.858;25.974;2024-03-08T04:05:07;101538.94;;;8.46;56.13
42169;BME280;27838;43.858;25.974;2024-03-08T04:07:35;101542.47;;;8.49;55.19
42169;BME280;27838;43.858;25.974;2024-03-08T04:10:06;101548.50;;;8.48;55.47
42169;BME280;27838;43.858;25.974;2024-03-08T04:12:36;101539.63;;;8.40;55.71
42169;BME280;27838;43.858;25.974;2024-03-08T04:15:03;101541.50;;;8.44;56.25
42169;BME280;27838;43.858;25.974;2024-03-08T04:17:32;101551.06;;;8.47;55.33
42169;BME280;27838;43.858;25.974;2024-03-08T04:20:01;101548.50;;;8.48;55.77
42169;BME280;27838;43.858;25.974;2024-03-08T04:22:30;101554.59;;;8.50;56.19
42169;BME280;27838;43.858;25.974;2024-03-08T04:24:58;101540.63;;;8.45;56.16
42169;BME280;27838;43.858;25.974;2024-03-08T04:27:25;101530.06;;;8.38;56.63
42169;BME280;27838;43.858;25.974;2024-03-08T04:29:51;101546.69;;;8.44;56.81
42169;BME280;27838;43.858;25.974;2024-03-08T04:32:18;101531.72;;;8.34;56.53
42169;BME280;27838;43.858;25.974;2024-03-08T04:34:44;101545.72;;;8.41;57.01
42169;BME280;27838;43.858;25.974;2024-03-08T04:37:11;101542.97;;;8.35;56.43
42169;BME280;27838;43.858;25.974;2024-03-08T04:39:39;101544.63;;;8.31;56.71
42169;BME280;27838;43.858;25.974;2024-03-08T04:42:05;101549.88;;;8.34;56.38
42169;BME280;27838;43.858;25.974;2024-03-08T04:44:38;101540.25;;;8.28;56.32
42169;BME280;27838;43.858;25.974;2024-03-08T04:47:05;101548.28;;;8.39;56.07
42169;BME280;27838;43.858;25.974;2024-03-08T04:49:32;101546.56;;;8.41;56.32
42169;BME280;27838;43.858;25.974;2024-03-08T04:52:04;101556.91;;;8.38;56.27
42169;BME280;27838;43.858;25.974;2024-03-08T04:54:32;101556.00;;;8.36;56.41
42169;BME280;27838;43.858;25.974;2024-03-08T04:56:59;101553.28;;;8.30;55.97
42169;BME280;27838;43.858;25.974;2024-03-08T04:59:26;101549.63;;;8.22;55.71
42169;BME280;27838;43.858;25.974;2024-03-08T05:01:53;101548.75;;;8.23;55.51
42169;BME280;27838;43.858;25.974;2024-03-08T05:04:19;101554.81;;;8.22;56.21
42169;BME280;27838;43.858;25.974;2024-03-08T05:06:46;101556.34;;;8.13;55.81
42169;BME280;27838;43.858;25.974;2024-03-08T05:09:13;101563.22;;;8.11;55.85
42169;BME280;27838;43.858;25.974;2024-03-08T05:11:41;101560.69;;;8.15;56.03
42169;BME280;27838;43.858;25.974;2024-03-08T05:14:09;101570.19;;;8.14;55.09
42169;BME280;27838;43.858;25.974;2024-03-08T05:16:36;101566.81;;;8.17;55.39
42169;BME280;27838;43.858;25.974;2024-03-08T05:19:02;101570.38;;;8.22;55.74
42169;BME280;27838;43.858;25.974;2024-03-08T05:21:29;101569.53;;;8.23;55.39
42169;BME280;27838;43.858;25.974;2024-03-08T05:23:55;101580.75;;;8.20;55.15
42169;BME280;27838;43.858;25.974;2024-03-08T05:26:22;101570.19;;;8.12;55.19
42169;BME280;27838;43.858;25.974;2024-03-08T05:28:49;101577.34;;;8.24;55.00
42169;BME280;27838;43.858;25.974;2024-03-08T05:31:22;101585.19;;;8.26;55.62
42169;BME280;27838;43.858;25.974;2024-03-08T05:33:49;101589.41;;;8.21;55.27
42169;BME280;27838;43.858;25.974;2024-03-08T05:36:16;101591.09;;;8.19;55.52
42169;BME280;27838;43.858;25.974;2024-03-08T05:38:43;101587.53;;;8.15;56.04
42169;BME280;27838;43.858;25.974;2024-03-08T05:41:10;101594.47;;;8.15;55.57
42169;BME280;27838;43.858;25.974;2024-03-08T05:43:37;101597.88;;;8.13;56.03
42169;BME280;27838;43.858;25.974;2024-03-08T05:46:04;101598.78;;;8.16;55.87
42169;BME280;27838;43.858;25.974;2024-03-08T05:48:31;101603.88;;;8.09;56.51
42169;BME280;27838;43.858;25.974;2024-03-08T05:50:59;101607.31;;;8.10;55.99
42169;BME280;27838;43.858;25.974;2024-03-08T05:53:27;101612.44;;;8.07;55.98
42169;BME280;27838;43.858;25.974;2024-03-08T05:55:57;101606.38;;;8.06;56.30
42169;BME280;27838;43.858;25.974;2024-03-08T05:58:23;101623.00;;;8.13;55.42
42169;BME280;27838;43.858;25.974;2024-03-08T06:00:50;101615.13;;;8.10;55.84
42169;BME280;27838;43.858;25.974;2024-03-08T06:03:17;101615.75;;;8.01;55.66
42169;BME280;27838;43.858;25.974;2024-03-08T06:05:47;101620.19;;;8.05;56.49
42169;BME280;27838;43.858;25.974;2024-03-08T06:08:13;101621.09;;;8.06;56.30
42169;BME280;27838;43.858;25.974;2024-03-08T06:10:41;101623.72;;;8.09;55.68
42169;BME280;27838;43.858;25.974;2024-03-08T06:13:07;101627.22;;;8.09;55.47
42169;BME280;27838;43.858;25.974;2024-03-08T06:15:34;101624.84;;;8.19;55.37
42169;BME280;27838;43.858;25.974;2024-03-08T06:18:01;101624.75;;;8.16;55.70
42169;BME280;27838;43.858;25.974;2024-03-08T06:20:28;101626.56;;;8.18;56.23
42169;BME280;27838;43.858;25.974;2024-03-08T06:22:55;101617.66;;;8.08;55.91
42169;BME280;27838;43.858;25.974;2024-03-08T06:25:21;101624.69;;;8.11;55.47
42169;BME280;27838;43.858;25.974;2024-03-08T06:27:48;101630.72;;;8.11;56.57
42169;BME280;27838;43.858;25.974;2024-03-08T06:30:15;101628.97;;;8.10;56.10
42169;BME280;27838;43.858;25.974;2024-03-08T06:32:41;101632.44;;;8.09;55.80
42169;BME280;27838;43.858;25.974;2024-03-08T06:35:08;101632.25;;;8.03;56.24
42169;BME280;27838;43.858;25.974;2024-03-08T06:37:35;101627.75;;;7.96;56.72
42169;BME280;27838;43.858;25.974;2024-03-08T06:40:02;101637.34;;;7.99;57.44
42169;BME280;27838;43.858;25.974;2024-03-08T06:42:29;101633.63;;;7.89;56.37
42169;BME280;27838;43.858;25.974;2024-03-08T06:44:59;101633.63;;;7.89;57.03
42169;BME280;27838;43.858;25.974;2024-03-08T06:47:30;101636.41;;;7.97;57.20
42169;BME280;27838;43.858;25.974;2024-03-08T06:49:57;101640.91;;;8.02;57.37
42169;BME280;27838;43.858;25.974;2024-03-08T06:52:23;101640.00;;;8.02;57.26
42169;BME280;27838;43.858;25.974;2024-03-08T06:54:50;101647.88;;;8.05;57.36
42169;BME280;27838;43.858;25.974;2024-03-08T06:57:18;101645.53;;;8.16;56.82
42169;BME280;27838;43.858;25.974;2024-03-08T06:59:47;101643.03;;;8.19;56.32
42169;BME280;27838;43.858;25.974;2024-03-08T07:02:14;101656.84;;;8.16;56.59
42169;BME280;27838;43.858;25.974;2024-03-08T07:04:41;101656.78;;;8.15;56.89
42169;BME280;27838;43.858;25.974;2024-03-08T07:07:07;101644.72;;;8.17;56.19
42169;BME280;27838;43.858;25.974;2024-03-08T07:09:38;101654.41;;;8.24;56.25
42169;BME280;27838;43.858;25.974;2024-03-08T07:12:06;101650.22;;;8.29;56.13
42169;BME280;27838;43.858;25.974;2024-03-08T07:14:33;101654.53;;;8.28;56.56
42169;BME280;27838;43.858;25.974;2024-03-08T07:16:59;101651.91;;;8.27;56.59
42169;BME280;27838;43.858;25.974;2024-03-08T07:19:26;101640.47;;;8.20;57.18
42169;BME280;27838;43.858;25.974;2024-03-08T07:21:52;101656.34;;;8.32;56.38
42169;BME280;27838;43.858;25.974;2024-03-08T07:24:20;101661.72;;;8.40;57.06
42169;BME280;27838;43.858;25.974;2024-03-08T07:27:05;101664.31;;;8.40;56.55
42169;BME280;27838;43.858;25.974;2024-03-08T07:29:32;101668.84;;;8.46;56.05
42169;BME280;27838;43.858;25.974;2024-03-08T07:31:59;101655.81;;;8.44;56.33
42169;BME280;27838;43.858;25.974;2024-03-08T07:34:43;101661.84;;;8.43;55.95
42169;BME280;27838;43.858;25.974;2024-03-08T07:37:09;101661.09;;;8.47;56.36
42169;BME280;27838;43.858;25.974;2024-03-08T07:39:39;101673.28;;;8.52;56.33
42169;BME280;27838;43.858;25.974;2024-03-08T07:42:06;101678.56;;;8.55;55.39
42169;BME280;27838;43.858;25.974;2024-03-08T07:44:33;101668.22;;;8.58;54.89
42169;BME280;27838;43.858;25.974;2024-03-08T07:46:59;101663.09;;;8.61;55.70
42169;BME280;27838;43.858;25.974;2024-03-08T07:49:26;101672.63;;;8.60;55.66
42169;BME280;27838;43.858;25.974;2024-03-08T07:51:52;101673.56;;;8.64;56.04
42169;BME280;27838;43.858;25.974;2024-03-08T07:54:19;101669.28;;;8.66;55.72
42169;BME280;27838;43.858;25.974;2024-03-08T07:56:45;101667.69;;;8.71;55.88
42169;BME280;27838;43.858;25.974;2024-03-08T07:59:12;101672.09;;;8.75;55.63
42169;BME280;27838;43.858;25.974;2024-03-08T08:01:38;101673.94;;;8.79;55.55
42169;BME280;27838;43.858;25.974;2024-03-08T08:04:05;101668.59;;;8.73;55.30
42169;BME280;27838;43.858;25.974;2024-03-08T08:06:32;101673.78;;;8.73;55.40
42169;BME280;27838;43.858;25.974;2024-03-08T08:08:59;101671.25;;;8.76;56.28
42169;BME280;27838;43.858;25.974;2024-03-08T08:11:28;101672.91;;;8.73;55.46
42169;BME280;27838;43.858;25.974;2024-03-08T08:13:56;101665.72;;;8.61;56.03
42169;BME280;27838;43.858;25.974;2024-03-08T08:16:23;101673.56;;;8.64;55.64
42169;BME280;27838;43.858;25.974;2024-03-08T08:18:50;101671.81;;;8.63;55.91
42169;BME280;27838;43.858;25.974;2024-03-08T08:21:18;101680.47;;;8.62;55.79
42169;BME280;27838;43.858;25.974;2024-03-08T08:23:44;101675.28;;;8.62;56.39
42169;BME280;27838;43.858;25.974;2024-03-08T08:26:11;101679.59;;;8.63;55.57
42169;BME280;27838;43.858;25.974;2024-03-08T08:28:37;101686.75;;;8.72;56.21
42169;BME280;27838;43.858;25.974;2024-03-08T08:31:06;101689.50;;;8.78;55.81
42169;BME280;27838;43.858;25.974;2024-03-08T08:33:33;101677.47;;;8.83;56.04
42169;BME280;27838;43.858;25.974;2024-03-08T08:36:00;101677.69;;;8.92;55.79
42169;BME280;27838;43.858;25.974;2024-03-08T08:38:27;101672.44;;;8.91;55.63
42169;BME280;27838;43.858;25.974;2024-03-08T08:40:53;101677.72;;;8.94;55.46
42169;BME280;27838;43.858;25.974;2024-03-08T08:43:21;101682.19;;;9.01;55.67
42169;BME280;27838;43.858;25.974;2024-03-08T08:45:49;101676.03;;;8.96;56.02
42169;BME280;27838;43.858;25.974;2024-03-08T08:48:19;101683.84;;;8.97;55.35
42169;BME280;27838;43.858;25.974;2024-03-08T08:50:46;101689.91;;;8.98;55.68
42169;BME280;27838;43.858;25.974;2024-03-08T08:53:13;101687.41;;;9.01;55.37
42169;BME280;27838;43.858;25.974;2024-03-08T08:55:40;101684.88;;;9.04;55.56
42169;BME280;27838;43.858;25.974;2024-03-08T08:58:07;101690.97;;;9.06;55.49
42169;BME280;27838;43.858;25.974;2024-03-08T09:00:33;101692.72;;;9.05;55.52
42169;BME280;27838;43.858;25.974;2024-03-08T09:03:00;101690.16;;;9.07;55.15
42169;BME280;27838;43.858;25.974;2024-03-08T09:05:27;101688.50;;;9.11;55.72
42169;BME280;27838;43.858;25.974;2024-03-08T09:07:54;101685.94;;;9.14;55.13
42169;BME280;27838;43.858;25.974;2024-03-08T09:10:21;101691.09;;;9.11;55.62
42169;BME280;27838;43.858;25.974;2024-03-08T09:12:48;101691.81;;;9.05;55.93
42169;BME280;27838;43.858;25.974;2024-03-08T09:15:15;101684.88;;;9.04;55.56
42169;BME280;27838;43.858;25.974;2024-03-08T09:17:43;101693.66;;;9.09;55.42
42169;BME280;27838;43.858;25.974;2024-03-08T09:20:10;101688.44;;;9.09;55.27
42169;BME280;27838;43.858;25.974;2024-03-08T09:22:45;101683.38;;;9.15;55.11
42169;BME280;27838;43.858;25.974;2024-03-08T09:25:12;101694.78;;;9.22;55.62
42169;BME280;27838;43.858;25.974;2024-03-08T09:27:39;101696.56;;;9.23;55.49
42169;BME280;27838;43.858;25.974;2024-03-08T09:30:06;101699.13;;;9.21;55.07
42169;BME280;27838;43.858;25.974;2024-03-08T09:32:33;101692.94;;;9.16;55.45
42169;BME280;27838;43.858;25.974;2024-03-08T09:35:00;101699.03;;;9.18;54.72
42169;BME280;27838;43.858;25.974;2024-03-08T09:37:27;101699.09;;;9.20;54.92
42169;BME280;27838;43.858;25.974;2024-03-08T09:39:53;101700.81;;;9.19;54.93
42169;BME280;27838;43.858;25.974;2024-03-08T09:42:20;101697.34;;;9.20;54.84
42169;BME280;27838;43.858;25.974;2024-03-08T09:44:47;101694.75;;;9.20;55.37
42169;BME280;27838;43.858;25.974;2024-03-08T09:47:14;101703.44;;;9.21;55.24
42169;BME280;27838;43.858;25.974;2024-03-08T09:49:42;101700.84;;;9.22;55.25
42169;BME280;27838;43.858;25.974;2024-03-08T09:52:08;101704.16;;;9.15;54.91
42169;BME280;27838;43.858;25.974;2024-03-08T09:54:35;101697.22;;;9.14;55.24
42169;BME280;27838;43.858;25.974;2024-03-08T09:57:04;101698.22;;;9.19;54.75
42169;BME280;27838;43.858;25.974;2024-03-08T09:59:30;101693.94;;;9.23;55.12
42169;BME280;27838;43.858;25.974;2024-03-08T10:02:16;101700.13;;;9.28;54.88
42169;BME280;27838;43.858;25.974;2024-03-08T10:04:44;101701.09;;;9.35;55.09
42169;BME280;27838;43.858;25.974;2024-03-08T10:07:12;101701.19;;;9.38;54.39
42169;BME280;27838;43.858;25.974;2024-03-08T10:09:39;101697.84;;;9.45;54.57
42169;BME280;27838;43.858;25.974;2024-03-08T10:12:08;101700.56;;;9.50;54.71
42169;BME280;27838;43.858;25.974;2024-03-08T10:14:39;101697.22;;;9.57;54.05
42169;BME280;27838;43.858;25.974;2024-03-08T10:17:05;101700.69;;;9.57;54.27
42169;BME280;27838;43.858;25.974;2024-03-08T10:19:32;101695.50;;;9.56;54.31
42169;BME280;27838;43.858;25.974;2024-03-08T10:21:59;101694.53;;;9.52;54.09
42169;BME280;27838;43.858;25.974;2024-03-08T10:24:26;101705.06;;;9.58;54.45
42169;BME280;27838;43.858;25.974;2024-03-08T10:26:58;101693.66;;;9.52;54.33
42169;BME280;27838;43.858;25.974;2024-03-08T10:29:25;101698.09;;;9.56;54.13
42169;BME280;27838;43.858;25.974;2024-03-08T10:31:52;101694.72;;;9.61;54.20
42169;BME280;27838;43.858;25.974;2024-03-08T10:34:18;101694.81;;;9.68;54.41
42169;BME280;27838;43.858;25.974;2024-03-08T10:36:45;101699.19;;;9.69;54.46
42169;BME280;27838;43.858;25.974;2024-03-08T10:39:24;101689.59;;;9.64;54.17
42169;BME280;27838;43.858;25.974;2024-03-08T10:41:58;101694.03;;;9.70;54.35
42169;BME280;27838;43.858;25.974;2024-03-08T10:47:26;101689.78;;;9.75;54.21
42169;BME280;27838;43.858;25.974;2024-03-08T10:50:08;101696.75;;;9.78;54.07
42169;BME280;27838;43.858;25.974;2024-03-08T10:52:38;101689.75;;;9.74;54.05
42169;BME280;27838;43.858;25.974;2024-03-08T10:55:07;101681.94;;;9.74;54.12
42169;BME280;27838;43.858;25.974;2024-03-08T10:57:38;101680.13;;;9.71;54.48
42169;BME280;27838;43.858;25.974;2024-03-08T11:00:07;101682.84;;;9.76;54.13
42169;BME280;27838;43.858;25.974;2024-03-08T11:02:36;101673.25;;;9.73;54.17
42169;BME280;27838;43.858;25.974;2024-03-08T11:05:03;101675.88;;;9.75;54.54
42169;BME280;27838;43.858;25.974;2024-03-08T11:07:34;101681.16;;;9.79;54.03
42169;BME280;27838;43.858;25.974;2024-03-08T11:10:04;101675.16;;;9.82;54.09
42169;BME280;27838;43.858;25.974;2024-03-08T11:12:38;101675.88;;;9.75;53.69
42169;BME280;27838;43.858;25.974;2024-03-08T11:15:11;101671.69;;;9.83;53.65
42169;BME280;27838;43.858;25.974;2024-03-08T11:20:12;101669.94;;;9.83;52.87
42169;BME280;27838;43.858;25.974;2024-03-08T11:22:49;101671.75;;;9.86;53.13
42169;BME280;27838;43.858;25.974;2024-03-08T11:28:12;101664.97;;;9.94;53.55
42169;BME280;27838;43.858;25.974;2024-03-08T11:33:16;101662.34;;;9.96;53.58
42169;BME280;27838;43.858;25.974;2024-03-08T11:35:43;101665.72;;;9.90;53.88
42169;BME280;27838;43.858;25.974;2024-03-08T11:38:11;101664.75;;;9.83;54.04
42169;BME280;27838;43.858;25.974;2024-03-08T11:40:39;101662.13;;;9.83;54.00
42169;BME280;27838;43.858;25.974;2024-03-08T11:43:05;101657.84;;;9.84;53.98
42169;BME280;27838;43.858;25.974;2024-03-08T11:45:34;101659.66;;;9.90;53.72
42169;BME280;27838;43.858;25.974;2024-03-08T11:48:03;101648.25;;;9.83;53.77
42169;BME280;27838;43.858;25.974;2024-03-08T11:50:30;101655.25;;;9.86;53.65
42169;BME280;27838;43.858;25.974;2024-03-08T11:53:04;101657.91;;;9.90;53.90
42169;BME280;27838;43.858;25.974;2024-03-08T11:55:31;101648.41;;;9.92;54.03
42169;BME280;27838;43.858;25.974;2024-03-08T11:58:04;101650.13;;;9.92;53.58
42169;BME280;27838;43.858;25.974;2024-03-08T12:00:33;101650.22;;;9.96;53.53
42169;BME280;27838;43.858;25.974;2024-03-08T12:03:07;101656.44;;;10.03;53.22
42169;BME280;27838;43.858;25.974;2024-03-08T12:05:35;101648.59;;;10.01;53.43
42169;BME280;27838;43.858;25.974;2024-03-08T12:08:05;101646.84;;;10.02;52.98
42169;BME280;27838;43.858;25.974;2024-03-08T12:10:32;101644.38;;;10.08;52.98
42169;BME280;27838;43.858;25.974;2024-03-08T12:13:00;101635.69;;;10.09;52.63
42169;BME280;27838;43.858;25.974;2024-03-08T12:15:29;101636.72;;;10.19;52.06
42169;BME280;27838;43.858;25.974;2024-03-08T12:17:58;101641.03;;;10.18;51.89
42169;BME280;27838;43.858;25.974;2024-03-08T12:20:27;101635.09;;;10.26;52.19
42169;BME280;27838;43.858;25.974;2024-03-08T12:22:55;101628.97;;;10.25;51.38
42169;BME280;27838;43.858;25.974;2024-03-08T12:25:26;101647.44;;;10.34;51.28
42169;BME280;27838;43.858;25.974;2024-03-08T12:27:53;101640.47;;;10.35;50.55
42169;BME280;27838;43.858;25.974;2024-03-08T12:30:23;101636.09;;;10.34;50.91
42169;BME280;27838;43.858;25.974;2024-03-08T12:32:56;101636.06;;;10.32;50.78
42169;BME280;27838;43.858;25.974;2024-03-08T12:35:25;101620.25;;;10.21;51.46
42169;BME280;27838;43.858;25.974;2024-03-08T12:37:59;101640.31;;;10.26;51.93
42169;BME280;27838;43.858;25.974;2024-03-08T12:40:30;101629.84;;;10.24;52.32
42169;BME280;27838;43.858;25.974;2024-03-08T12:42:58;101626.38;;;10.25;52.39
42169;BME280;27838;43.858;25.974;2024-03-08T12:45:25;101615.88;;;10.19;52.06
42169;BME280;27838;43.858;25.974;2024-03-08T12:47:52;101626.31;;;10.22;52.41
42169;BME280;27838;43.858;25.974;2024-03-08T12:50:22;101627.16;;;10.19;52.47
42169;BME280;27838;43.858;25.974;2024-03-08T12:52:50;101621.91;;;10.16;52.47
42169;BME280;27838;43.858;25.974;2024-03-08T12:55:19;101616.50;;;10.06;52.76
42169;BME280;27838;43.858;25.974;2024-03-08T12:57:46;101616.44;;;9.99;53.31
42169;BME280;27838;43.858;25.974;2024-03-08T13:00:14;101619.13;;;10.06;53.40
42169;BME280;27838;43.858;25.974;2024-03-08T13:02:47;101622.63;;;10.08;53.27
42169;BME280;27838;43.858;25.974;2024-03-08T13:05:15;101613.06;;;10.07;52.72